sensor_id;sensor_type;location;lat;lon;timestamp;temperature;humidity
70947;DHT22;58605;48.700;8.760;2022-10-16T00:01:43;14.90;99.90
70947;DHT22;58605;48.700;8.760;2022-10-16T00:04:09;14.90;99.90
70947;DHT22;58605;48.700;8.760;2022-10-16T00:06:35;14.90;99.90
70947;DHT22;58605;48.700;8.760;2022-10-16T00:09:01;14.90;99.90
70947;DHT22;58605;48.700;8.760;2022-10-16T00:11:28;15.00;99.90
70947;DHT22;58605;48.700;8.760;2022-10-16T00:13:57;15.20;99.90
70947;DHT22;58605;48.700;8.760;2022-10-16T00:16:25;15.30;99.90
70947;DHT22;58605;48.700;8.760;2022-10-16T00:18:52;15.30;99.90
70947;DHT22;58605;48.700;8.760;2022-10-16T00:21:19;15.10;99.90
70947;DHT22;58605;48.700;8.760;2022-10-16T00:23:46;15.10;99.90
70947;DHT22;58605;48.700;8.760;2022-10-16T00:26:14;15.10;99.90
70947;DHT22;58605;48.700;8.760;2022-10-16T00:28:40;15.30;99.90
70947;DHT22;58605;48.700;8.760;2022-10-16T00:31:09;15.30;99.90
70947;DHT22;58605;48.700;8.760;2022-10-16T00:33:38;15.40;99.90
70947;DHT22;58605;48.700;8.760;2022-10-16T00:36:05;15.50;99.90
70947;DHT22;58605;48.700;8.760;2022-10-16T00:38:32;15.60;99.90
70947;DHT22;58605;48.700;8.760;2022-10-16T00:40:58;15.60;99.90
70947;DHT22;58605;48.700;8.760;2022-10-16T00:43:36;15.60;99.90
70947;DHT22;58605;48.700;8.760;2022-10-16T00:46:07;15.40;99.90
70947;DHT22;58605;48.700;8.760;2022-10-16T00:48:37;15.30;99.90
70947;DHT22;58605;48.700;8.760;2022-10-16T00:51:04;15.30;99.90
70947;DHT22;58605;48.700;8.760;2022-10-16T00:53:31;15.30;99.90
70947;DHT22;58605;48.700;8.760;2022-10-16T00:55:57;15.10;99.90
70947;DHT22;58605;48.700;8.760;2022-10-16T00:58:23;15.00;99.90
70947;DHT22;58605;48.700;8.760;2022-10-16T01:00:49;15.00;99.90
70947;DHT22;58605;48.700;8.760;2022-10-16T01:03:24;14.90;99.90
70947;DHT22;58605;48.700;8.760;2022-10-16T01:06:03;14.90;99.90
70947;DHT22;58605;48.700;8.760;2022-10-16T01:08:39;14.90;99.90
70947;DHT22;58605;48.700;8.760;2022-10-16T01:11:11;14.80;99.90
70947;DHT22;58605;48.700;8.760;2022-10-16T01:13:42;14.80;99.90
70947;DHT22;58605;48.700;8.760;2022-10-16T01:16:15;14.80;99.90
70947;DHT22;58605;48.700;8.760;2022-10-16T01:18:44;14.70;99.90
70947;DHT22;58605;48.700;8.760;2022-10-16T01:21:15;14.70;99.90
70947;DHT22;58605;48.700;8.760;2022-10-16T01:23:50;14.70;99.90
70947;DHT22;58605;48.700;8.760;2022-10-16T01:26:31;14.70;99.90
70947;DHT22;58605;48.700;8.760;2022-10-16T01:29:07;14.70;99.90
70947;DHT22;58605;48.700;8.760;2022-10-16T01:31:36;14.70;99.90
70947;DHT22;58605;48.700;8.760;2022-10-16T01:34:08;14.70;99.90
70947;DHT22;58605;48.700;8.760;2022-10-16T01:36:38;14.70;99.90
70947;DHT22;58605;48.700;8.760;2022-10-16T01:39:08;14.70;99.90
70947;DHT22;58605;48.700;8.760;2022-10-16T01:41:38;14.70;99.90
70947;DHT22;58605;48.700;8.760;2022-10-16T01:44:08;14.70;99.90
70947;DHT22;58605;48.700;8.760;2022-10-16T01:46:37;14.90;99.90
70947;DHT22;58605;48.700;8.760;2022-10-16T01:49:05;15.00;99.90
70947;DHT22;58605;48.700;8.760;2022-10-16T01:51:32;15.20;99.90
70947;DHT22;58605;48.700;8.760;2022-10-16T01:54:01;15.30;99.90
70947;DHT22;58605;48.700;8.760;2022-10-16T01:56:28;15.20;99.90
70947;DHT22;58605;48.700;8.760;2022-10-16T01:58:59;15.10;99.90
70947;DHT22;58605;48.700;8.760;2022-10-16T02:01:30;15.20;99.90
70947;DHT22;58605;48.700;8.760;2022-10-16T02:03:59;15.20;99.90
70947;DHT22;58605;48.700;8.760;2022-10-16T02:06:27;15.30;99.90
70947;DHT22;58605;48.700;8.760;2022-10-16T02:08:55;15.30;99.90
70947;DHT22;58605;48.700;8.760;2022-10-16T02:11:21;15.30;99.90
70947;DHT22;58605;48.700;8.760;2022-10-16T02:13:51;14.90;99.90
70947;DHT22;58605;48.700;8.760;2022-10-16T02:16:18;14.80;99.90
70947;DHT22;58605;48.700;8.760;2022-10-16T02:18:46;14.90;99.90
70947;DHT22;58605;48.700;8.760;2022-10-16T02:21:16;15.00;99.90
70947;DHT22;58605;48.700;8.760;2022-10-16T02:23:48;15.20;99.90
70947;DHT22;58605;48.700;8.760;2022-10-16T02:26:26;15.20;99.90
70947;DHT22;58605;48.700;8.760;2022-10-16T02:28:57;15.30;99.90
70947;DHT22;58605;48.700;8.760;2022-10-16T02:31:27;15.40;99.90
70947;DHT22;58605;48.700;8.760;2022-10-16T02:33:58;15.40;99.90
70947;DHT22;58605;48.700;8.760;2022-10-16T02:36:25;15.50;99.90
70947;DHT22;58605;48.700;8.760;2022-10-16T02:38:52;15.50;99.90
70947;DHT22;58605;48.700;8.760;2022-10-16T02:41:19;15.30;99.90
70947;DHT22;58605;48.700;8.760;2022-10-16T02:43:46;15.00;99.90
70947;DHT22;58605;48.700;8.760;2022-10-16T02:46:12;14.90;99.90
70947;DHT22;58605;48.700;8.760;2022-10-16T02:48:37;14.80;99.90
70947;DHT22;58605;48.700;8.760;2022-10-16T02:51:06;14.70;99.90
70947;DHT22;58605;48.700;8.760;2022-10-16T02:53:32;14.70;99.90
70947;DHT22;58605;48.700;8.760;2022-10-16T02:55:58;14.80;99.90
70947;DHT22;58605;48.700;8.760;2022-10-16T02:58:24;14.80;99.90
70947;DHT22;58605;48.700;8.760;2022-10-16T03:00:49;14.90;99.90
70947;DHT22;58605;48.700;8.760;2022-10-16T03:03:15;15.00;99.90
70947;DHT22;58605;48.700;8.760;2022-10-16T03:05:43;15.10;99.90
70947;DHT22;58605;48.700;8.760;2022-10-16T03:08:12;15.20;99.90
70947;DHT22;58605;48.700;8.760;2022-10-16T03:10:38;15.40;99.90
70947;DHT22;58605;48.700;8.760;2022-10-16T03:13:04;15.50;99.90
70947;DHT22;58605;48.700;8.760;2022-10-16T03:15:30;15.30;99.90
70947;DHT22;58605;48.700;8.760;2022-10-16T03:17:57;15.10;99.90
70947;DHT22;58605;48.700;8.760;2022-10-16T03:20:24;14.90;99.90
70947;DHT22;58605;48.700;8.760;2022-10-16T03:22:56;14.80;99.90
70947;DHT22;58605;48.700;8.760;2022-10-16T03:25:24;14.70;99.90
70947;DHT22;58605;48.700;8.760;2022-10-16T03:27:50;14.70;99.90
70947;DHT22;58605;48.700;8.760;2022-10-16T03:30:16;14.70;99.90
70947;DHT22;58605;48.700;8.760;2022-10-16T03:32:43;14.60;99.90
70947;DHT22;58605;48.700;8.760;2022-10-16T03:35:09;14.60;99.90
70947;DHT22;58605;48.700;8.760;2022-10-16T03:37:35;14.50;99.90
70947;DHT22;58605;48.700;8.760;2022-10-16T03:40:02;14.50;99.90
70947;DHT22;58605;48.700;8.760;2022-10-16T03:42:30;14.50;99.90
70947;DHT22;58605;48.700;8.760;2022-10-16T03:44:55;14.50;99.90
70947;DHT22;58605;48.700;8.760;2022-10-16T03:47:21;14.50;99.90
70947;DHT22;58605;48.700;8.760;2022-10-16T03:49:49;14.60;99.90
70947;DHT22;58605;48.700;8.760;2022-10-16T03:52:15;14.80;99.90
70947;DHT22;58605;48.700;8.760;2022-10-16T03:54:41;14.90;99.90
70947;DHT22;58605;48.700;8.760;2022-10-16T03:57:07;15.00;99.90
70947;DHT22;58605;48.700;8.760;2022-10-16T03:59:34;15.10;99.90
70947;DHT22;58605;48.700;8.760;2022-10-16T04:02:00;15.20;99.90
70947;DHT22;58605;48.700;8.760;2022-10-16T04:04:26;15.30;99.90
70947;DHT22;58605;48.700;8.760;2022-10-16T04:06:52;15.30;99.90
70947;DHT22;58605;48.700;8.760;2022-10-16T04:09:18;15.40;99.90
70947;DHT22;58605;48.700;8.760;2022-10-16T04:11:44;15.20;99.90
70947;DHT22;58605;48.700;8.760;2022-10-16T04:14:10;14.90;99.90
70947;DHT22;58605;48.700;8.760;2022-10-16T04:16:37;14.60;99.90
70947;DHT22;58605;48.700;8.760;2022-10-16T04:19:03;14.40;99.90
70947;DHT22;58605;48.700;8.760;2022-10-16T04:21:29;14.30;99.90
70947;DHT22;58605;48.700;8.760;2022-10-16T04:23:55;14.30;99.90
70947;DHT22;58605;48.700;8.760;2022-10-16T04:26:21;14.30;99.90
70947;DHT22;58605;48.700;8.760;2022-10-16T04:28:47;14.20;99.90
70947;DHT22;58605;48.700;8.760;2022-10-16T04:31:13;14.20;99.90
70947;DHT22;58605;48.700;8.760;2022-10-16T04:33:42;14.20;99.90
70947;DHT22;58605;48.700;8.760;2022-10-16T04:36:08;14.20;99.90
70947;DHT22;58605;48.700;8.760;2022-10-16T04:38:34;14.10;99.90
70947;DHT22;58605;48.700;8.760;2022-10-16T04:41:03;14.10;99.90
70947;DHT22;58605;48.700;8.760;2022-10-16T04:43:29;14.10;99.90
70947;DHT22;58605;48.700;8.760;2022-10-16T04:45:55;14.20;99.90
70947;DHT22;58605;48.700;8.760;2022-10-16T04:48:22;14.20;99.90
70947;DHT22;58605;48.700;8.760;2022-10-16T04:50:49;14.10;99.90
70947;DHT22;58605;48.700;8.760;2022-10-16T04:53:15;14.00;99.90
70947;DHT22;58605;48.700;8.760;2022-10-16T04:55:41;13.90;99.90
70947;DHT22;58605;48.700;8.760;2022-10-16T04:58:08;14.00;99.90
70947;DHT22;58605;48.700;8.760;2022-10-16T05:00:34;14.30;99.90
70947;DHT22;58605;48.700;8.760;2022-10-16T05:03:00;14.40;99.90
70947;DHT22;58605;48.700;8.760;2022-10-16T05:05:26;14.40;99.90
70947;DHT22;58605;48.700;8.760;2022-10-16T05:07:54;14.40;99.90
70947;DHT22;58605;48.700;8.760;2022-10-16T05:10:20;14.70;99.90
70947;DHT22;58605;48.700;8.760;2022-10-16T05:12:46;14.90;99.90
70947;DHT22;58605;48.700;8.760;2022-10-16T05:15:12;15.00;99.90
70947;DHT22;58605;48.700;8.760;2022-10-16T05:17:38;15.10;99.90
70947;DHT22;58605;48.700;8.760;2022-10-16T05:20:05;15.20;99.90
70947;DHT22;58605;48.700;8.760;2022-10-16T05:22:31;15.10;99.90
70947;DHT22;58605;48.700;8.760;2022-10-16T05:24:58;15.00;99.90
70947;DHT22;58605;48.700;8.760;2022-10-16T05:27:24;14.90;99.90
70947;DHT22;58605;48.700;8.760;2022-10-16T05:29:50;14.70;99.90
70947;DHT22;58605;48.700;8.760;2022-10-16T05:32:17;14.50;99.90
70947;DHT22;58605;48.700;8.760;2022-10-16T05:34:43;14.30;99.90
70947;DHT22;58605;48.700;8.760;2022-10-16T05:37:09;14.10;99.90
70947;DHT22;58605;48.700;8.760;2022-10-16T05:39:37;14.20;99.90
70947;DHT22;58605;48.700;8.760;2022-10-16T05:42:05;14.10;99.90
70947;DHT22;58605;48.700;8.760;2022-10-16T05:44:31;14.10;99.90
70947;DHT22;58605;48.700;8.760;2022-10-16T05:46:57;14.10;99.90
70947;DHT22;58605;48.700;8.760;2022-10-16T05:49:23;14.20;99.90
70947;DHT22;58605;48.700;8.760;2022-10-16T05:51:49;14.20;99.90
70947;DHT22;58605;48.700;8.760;2022-10-16T05:54:15;14.10;99.90
70947;DHT22;58605;48.700;8.760;2022-10-16T05:56:41;14.10;99.90
70947;DHT22;58605;48.700;8.760;2022-10-16T05:59:08;14.00;99.90
70947;DHT22;58605;48.700;8.760;2022-10-16T06:01:34;13.90;99.90
70947;DHT22;58605;48.700;8.760;2022-10-16T06:04:01;13.90;99.90
70947;DHT22;58605;48.700;8.760;2022-10-16T06:06:28;13.90;99.90
70947;DHT22;58605;48.700;8.760;2022-10-16T06:08:56;14.00;99.90
70947;DHT22;58605;48.700;8.760;2022-10-16T06:11:24;14.10;99.90
70947;DHT22;58605;48.700;8.760;2022-10-16T06:13:51;14.10;99.90
70947;DHT22;58605;48.700;8.760;2022-10-16T06:16:19;14.20;99.90
70947;DHT22;58605;48.700;8.760;2022-10-16T06:18:46;14.30;99.90
70947;DHT22;58605;48.700;8.760;2022-10-16T06:21:14;14.40;99.90
70947;DHT22;58605;48.700;8.760;2022-10-16T06:23:42;14.40;99.90
70947;DHT22;58605;48.700;8.760;2022-10-16T06:26:19;14.40;99.90
70947;DHT22;58605;48.700;8.760;2022-10-16T06:28:46;14.50;99.90
70947;DHT22;58605;48.700;8.760;2022-10-16T06:31:13;14.50;99.90
70947;DHT22;58605;48.700;8.760;2022-10-16T06:33:41;14.60;99.90
70947;DHT22;58605;48.700;8.760;2022-10-16T06:36:09;14.50;99.90
70947;DHT22;58605;48.700;8.760;2022-10-16T06:38:36;14.30;99.90
70947;DHT22;58605;48.700;8.760;2022-10-16T06:41:02;14.20;99.90
70947;DHT22;58605;48.700;8.760;2022-10-16T06:43:29;14.10;99.90
70947;DHT22;58605;48.700;8.760;2022-10-16T06:45:59;14.10;99.90
70947;DHT22;58605;48.700;8.760;2022-10-16T06:48:26;14.10;99.90
70947;DHT22;58605;48.700;8.760;2022-10-16T06:50:57;14.10;99.90
70947;DHT22;58605;48.700;8.760;2022-10-16T06:53:24;14.10;99.90
70947;DHT22;58605;48.700;8.760;2022-10-16T06:55:50;14.10;99.90
70947;DHT22;58605;48.700;8.760;2022-10-16T06:58:16;14.20;99.90
70947;DHT22;58605;48.700;8.760;2022-10-16T07:00:42;14.10;99.90
70947;DHT22;58605;48.700;8.760;2022-10-16T07:03:08;14.20;99.90
70947;DHT22;58605;48.700;8.760;2022-10-16T07:05:37;14.30;99.90
70947;DHT22;58605;48.700;8.760;2022-10-16T07:08:05;14.40;99.90
70947;DHT22;58605;48.700;8.760;2022-10-16T07:10:31;14.40;99.90
70947;DHT22;58605;48.700;8.760;2022-10-16T07:12:57;14.50;99.90
70947;DHT22;58605;48.700;8.760;2022-10-16T07:15:24;14.50;99.90
70947;DHT22;58605;48.700;8.760;2022-10-16T07:17:50;14.40;99.90
70947;DHT22;58605;48.700;8.760;2022-10-16T07:20:16;14.40;99.90
70947;DHT22;58605;48.700;8.760;2022-10-16T07:22:42;14.40;99.90
70947;DHT22;58605;48.700;8.760;2022-10-16T07:25:09;14.50;99.90
70947;DHT22;58605;48.700;8.760;2022-10-16T07:27:36;14.60;99.90
70947;DHT22;58605;48.700;8.760;2022-10-16T07:30:16;14.80;99.90
70947;DHT22;58605;48.700;8.760;2022-10-16T07:32:42;15.00;99.90
70947;DHT22;58605;48.700;8.760;2022-10-16T07:35:08;15.10;99.90
70947;DHT22;58605;48.700;8.760;2022-10-16T07:37:34;15.30;99.90
70947;DHT22;58605;48.700;8.760;2022-10-16T07:40:00;15.40;99.90
70947;DHT22;58605;48.700;8.760;2022-10-16T07:42:28;15.40;99.90
70947;DHT22;58605;48.700;8.760;2022-10-16T07:44:54;15.50;99.90
70947;DHT22;58605;48.700;8.760;2022-10-16T07:47:20;15.30;99.90
70947;DHT22;58605;48.700;8.760;2022-10-16T07:49:46;15.20;99.90
70947;DHT22;58605;48.700;8.760;2022-10-16T07:52:12;15.10;99.90
70947;DHT22;58605;48.700;8.760;2022-10-16T07:54:38;15.10;99.90
70947;DHT22;58605;48.700;8.760;2022-10-16T07:57:04;15.10;99.90
70947;DHT22;58605;48.700;8.760;2022-10-16T07:59:31;15.10;99.90
70947;DHT22;58605;48.700;8.760;2022-10-16T08:01:57;15.10;99.90
70947;DHT22;58605;48.700;8.760;2022-10-16T08:04:23;15.30;99.90
70947;DHT22;58605;48.700;8.760;2022-10-16T08:06:49;15.40;99.90
70947;DHT22;58605;48.700;8.760;2022-10-16T08:09:15;15.60;99.90
70947;DHT22;58605;48.700;8.760;2022-10-16T08:11:41;15.50;99.90
70947;DHT22;58605;48.700;8.760;2022-10-16T08:14:07;15.20;99.90
70947;DHT22;58605;48.700;8.760;2022-10-16T08:16:34;14.90;99.90
70947;DHT22;58605;48.700;8.760;2022-10-16T08:19:00;14.70;99.90
70947;DHT22;58605;48.700;8.760;2022-10-16T08:21:26;14.70;99.90
70947;DHT22;58605;48.700;8.760;2022-10-16T08:23:53;14.70;99.90
70947;DHT22;58605;48.700;8.760;2022-10-16T08:26:20;14.60;99.90
70947;DHT22;58605;48.700;8.760;2022-10-16T08:28:49;14.70;99.90
70947;DHT22;58605;48.700;8.760;2022-10-16T08:31:22;14.60;99.90
70947;DHT22;58605;48.700;8.760;2022-10-16T08:33:49;14.50;99.90
70947;DHT22;58605;48.700;8.760;2022-10-16T08:36:16;14.50;99.90
70947;DHT22;58605;48.700;8.760;2022-10-16T08:38:42;14.50;99.90
70947;DHT22;58605;48.700;8.760;2022-10-16T08:41:23;14.50;99.90
70947;DHT22;58605;48.700;8.760;2022-10-16T08:44:23;14.50;99.90
70947;DHT22;58605;48.700;8.760;2022-10-16T08:47:01;14.50;99.90
70947;DHT22;58605;48.700;8.760;2022-10-16T08:49:30;14.50;99.90
70947;DHT22;58605;48.700;8.760;2022-10-16T08:51:56;14.50;99.90
70947;DHT22;58605;48.700;8.760;2022-10-16T08:54:28;14.50;99.90
70947;DHT22;58605;48.700;8.760;2022-10-16T08:56:55;14.60;99.90
70947;DHT22;58605;48.700;8.760;2022-10-16T08:59:22;14.50;99.90
70947;DHT22;58605;48.700;8.760;2022-10-16T09:01:51;14.50;99.90
70947;DHT22;58605;48.700;8.760;2022-10-16T09:04:46;14.60;99.90
70947;DHT22;58605;48.700;8.760;2022-10-16T09:07:18;14.50;99.90
70947;DHT22;58605;48.700;8.760;2022-10-16T09:10:00;14.50;99.90
70947;DHT22;58605;48.700;8.760;2022-10-16T09:12:33;14.50;99.90
70947;DHT22;58605;48.700;8.760;2022-10-16T09:15:10;14.60;99.90
70947;DHT22;58605;48.700;8.760;2022-10-16T09:17:46;14.60;99.90
70947;DHT22;58605;48.700;8.760;2022-10-16T09:20:20;14.60;99.90
70947;DHT22;58605;48.700;8.760;2022-10-16T09:22:48;14.60;99.90
70947;DHT22;58605;48.700;8.760;2022-10-16T09:25:16;14.60;99.90
70947;DHT22;58605;48.700;8.760;2022-10-16T09:27:45;14.70;99.90
70947;DHT22;58605;48.700;8.760;2022-10-16T09:30:13;14.70;99.90
70947;DHT22;58605;48.700;8.760;2022-10-16T09:32:41;14.70;99.90
70947;DHT22;58605;48.700;8.760;2022-10-16T09:35:11;14.70;99.90
70947;DHT22;58605;48.700;8.760;2022-10-16T09:37:41;14.70;99.90
70947;DHT22;58605;48.700;8.760;2022-10-16T09:40:13;14.80;99.90
70947;DHT22;58605;48.700;8.760;2022-10-16T09:42:39;14.70;99.90
70947;DHT22;58605;48.700;8.760;2022-10-16T09:45:18;14.80;99.90
70947;DHT22;58605;48.700;8.760;2022-10-16T09:47:45;14.80;99.90
70947;DHT22;58605;48.700;8.760;2022-10-16T09:50:20;14.80;99.90
70947;DHT22;58605;48.700;8.760;2022-10-16T09:52:49;14.80;99.90
70947;DHT22;58605;48.700;8.760;2022-10-16T09:55:16;14.80;99.90
70947;DHT22;58605;48.700;8.760;2022-10-16T09:57:49;14.90;99.90
70947;DHT22;58605;48.700;8.760;2022-10-16T10:00:17;14.90;99.90
70947;DHT22;58605;48.700;8.760;2022-10-16T10:02:44;14.90;99.90
70947;DHT22;58605;48.700;8.760;2022-10-16T10:05:18;14.90;99.90
70947;DHT22;58605;48.700;8.760;2022-10-16T10:07:52;14.90;99.90
70947;DHT22;58605;48.700;8.760;2022-10-16T10:10:23;14.90;99.90
70947;DHT22;58605;48.700;8.760;2022-10-16T10:12:49;15.00;99.90
70947;DHT22;58605;48.700;8.760;2022-10-16T10:15:16;15.00;99.90
70947;DHT22;58605;48.700;8.760;2022-10-16T10:17:51;15.00;99.90
70947;DHT22;58605;48.700;8.760;2022-10-16T10:20:25;15.00;99.90
70947;DHT22;58605;48.700;8.760;2022-10-16T10:22:53;15.00;99.90
70947;DHT22;58605;48.700;8.760;2022-10-16T10:25:42;15.00;99.90
70947;DHT22;58605;48.700;8.760;2022-10-16T10:31:16;15.00;99.90
70947;DHT22;58605;48.700;8.760;2022-10-16T10:33:48;15.00;99.90
70947;DHT22;58605;48.700;8.760;2022-10-16T10:36:23;15.00;99.90
70947;DHT22;58605;48.700;8.760;2022-10-16T10:38:53;15.10;99.90
70947;DHT22;58605;48.700;8.760;2022-10-16T10:44:30;15.10;99.90
70947;DHT22;58605;48.700;8.760;2022-10-16T10:47:05;15.10;99.90
70947;DHT22;58605;48.700;8.760;2022-10-16T10:49:41;15.10;99.90
70947;DHT22;58605;48.700;8.760;2022-10-16T10:52:26;15.20;99.90
70947;DHT22;58605;48.700;8.760;2022-10-16T10:55:10;15.10;99.90
70947;DHT22;58605;48.700;8.760;2022-10-16T10:57:45;15.20;99.90
70947;DHT22;58605;48.700;8.760;2022-10-16T11:00:21;15.20;99.90
70947;DHT22;58605;48.700;8.760;2022-10-16T11:02:53;15.10;99.90
70947;DHT22;58605;48.700;8.760;2022-10-16T11:05:33;15.10;99.90
70947;DHT22;58605;48.700;8.760;2022-10-16T11:08:06;15.10;99.90
70947;DHT22;58605;48.700;8.760;2022-10-16T11:10:42;15.20;99.90
70947;DHT22;58605;48.700;8.760;2022-10-16T11:13:19;15.20;99.90
70947;DHT22;58605;48.700;8.760;2022-10-16T11:15:50;15.20;99.90
70947;DHT22;58605;48.700;8.760;2022-10-16T11:18:21;15.20;99.90
70947;DHT22;58605;48.700;8.760;2022-10-16T11:20:51;15.20;99.90
70947;DHT22;58605;48.700;8.760;2022-10-16T11:23:24;15.20;99.90
70947;DHT22;58605;48.700;8.760;2022-10-16T11:25:52;15.20;99.90
70947;DHT22;58605;48.700;8.760;2022-10-16T11:28:23;15.30;99.90
70947;DHT22;58605;48.700;8.760;2022-10-16T11:30:55;15.20;99.90
70947;DHT22;58605;48.700;8.760;2022-10-16T11:33:27;15.30;99.90
70947;DHT22;58605;48.700;8.760;2022-10-16T11:36:02;15.30;99.90
70947;DHT22;58605;48.700;8.760;2022-10-16T11:38:32;15.30;99.90
70947;DHT22;58605;48.700;8.760;2022-10-16T11:41:03;15.30;99.90
70947;DHT22;58605;48.700;8.760;2022-10-16T11:43:33;15.30;99.90
70947;DHT22;58605;48.700;8.760;2022-10-16T11:46:09;15.40;99.90
70947;DHT22;58605;48.700;8.760;2022-10-16T11:48:39;15.30;99.90
70947;DHT22;58605;48.700;8.760;2022-10-16T11:51:14;15.30;99.90
70947;DHT22;58605;48.700;8.760;2022-10-16T11:53:45;15.30;99.90
70947;DHT22;58605;48.700;8.760;2022-10-16T11:56:14;15.40;99.90
70947;DHT22;58605;48.700;8.760;2022-10-16T11:58:50;15.30;99.90
70947;DHT22;58605;48.700;8.760;2022-10-16T12:01:22;15.40;99.90
70947;DHT22;58605;48.700;8.760;2022-10-16T12:04:03;15.40;99.90
70947;DHT22;58605;48.700;8.760;2022-10-16T12:06:34;15.40;99.90
70947;DHT22;58605;48.700;8.760;2022-10-16T12:09:02;15.40;99.90
70947;DHT22;58605;48.700;8.760;2022-10-16T12:11:34;15.40;99.90
70947;DHT22;58605;48.700;8.760;2022-10-16T12:14:06;15.40;99.90
70947;DHT22;58605;48.700;8.760;2022-10-16T12:16:37;15.40;99.90
70947;DHT22;58605;48.700;8.760;2022-10-16T12:19:11;15.40;99.90
70947;DHT22;58605;48.700;8.760;2022-10-16T12:21:37;15.40;99.90
70947;DHT22;58605;48.700;8.760;2022-10-16T12:24:04;15.40;99.90
70947;DHT22;58605;48.700;8.760;2022-10-16T12:26:32;15.50;99.90
70947;DHT22;58605;48.700;8.760;2022-10-16T12:29:13;15.50;99.90
70947;DHT22;58605;48.700;8.760;2022-10-16T12:31:45;15.50;99.90
70947;DHT22;58605;48.700;8.760;2022-10-16T12:34:21;15.50;99.90
70947;DHT22;58605;48.700;8.760;2022-10-16T12:36:49;15.50;99.90
70947;DHT22;58605;48.700;8.760;2022-10-16T12:39:21;15.60;99.90
70947;DHT22;58605;48.700;8.760;2022-10-16T12:41:47;15.60;99.90
70947;DHT22;58605;48.700;8.760;2022-10-16T12:44:22;15.50;99.90
70947;DHT22;58605;48.700;8.760;2022-10-16T12:46:50;15.50;99.90
70947;DHT22;58605;48.700;8.760;2022-10-16T12:49:28;15.60;99.90
70947;DHT22;58605;48.700;8.760;2022-10-16T12:51:55;15.50;99.90
70947;DHT22;58605;48.700;8.760;2022-10-16T12:54:27;15.60;99.90
70947;DHT22;58605;48.700;8.760;2022-10-16T12:57:05;15.60;99.90
70947;DHT22;58605;48.700;8.760;2022-10-16T12:59:40;15.60;99.90
70947;DHT22;58605;48.700;8.760;2022-10-16T13:02:38;15.60;99.90
70947;DHT22;58605;48.700;8.760;2022-10-16T13:05:27;15.60;99.90
70947;DHT22;58605;48.700;8.760;2022-10-16T13:08:03;15.60;99.90
70947;DHT22;58605;48.700;8.760;2022-10-16T13:10:37;15.60;99.90
70947;DHT22;58605;48.700;8.760;2022-10-16T13:13:16;15.60;99.90
70947;DHT22;58605;48.700;8.760;2022-10-16T13:16:05;15.60;99.90
70947;DHT22;58605;48.700;8.760;2022-10-16T13:18:40;15.70;99.90
70947;DHT22;58605;48.700;8.760;2022-10-16T13:21:24;15.60;99.90
70947;DHT22;58605;48.700;8.760;2022-10-16T13:23:58;15.70;99.90
70947;DHT22;58605;48.700;8.760;2022-10-16T13:26:34;15.70;99.90
70947;DHT22;58605;48.700;8.760;2022-10-16T13:29:04;15.70;99.90
70947;DHT22;58605;48.700;8.760;2022-10-16T13:31:31;15.70;99.90
70947;DHT22;58605;48.700;8.760;2022-10-16T13:34:00;15.70;99.90
70947;DHT22;58605;48.700;8.760;2022-10-16T13:36:28;15.70;99.90
70947;DHT22;58605;48.700;8.760;2022-10-16T13:39:09;15.70;99.90
70947;DHT22;58605;48.700;8.760;2022-10-16T13:41:35;15.70;99.90
70947;DHT22;58605;48.700;8.760;2022-10-16T13:44:01;15.70;99.90
70947;DHT22;58605;48.700;8.760;2022-10-16T13:46:27;15.70;99.90
70947;DHT22;58605;48.700;8.760;2022-10-16T13:49:01;15.70;99.90
70947;DHT22;58605;48.700;8.760;2022-10-16T13:51:28;15.70;99.90
70947;DHT22;58605;48.700;8.760;2022-10-16T13:53:56;15.70;99.90
70947;DHT22;58605;48.700;8.760;2022-10-16T13:56:26;15.70;99.90
70947;DHT22;58605;48.700;8.760;2022-10-16T13:59:00;15.80;99.90
70947;DHT22;58605;48.700;8.760;2022-10-16T14:01:28;15.80;99.90
70947;DHT22;58605;48.700;8.760;2022-10-16T14:04:02;15.80;99.90
70947;DHT22;58605;48.700;8.760;2022-10-16T14:06:29;15.80;99.90
70947;DHT22;58605;48.700;8.760;2022-10-16T14:08:59;15.80;99.90
70947;DHT22;58605;48.700;8.760;2022-10-16T14:11:26;15.80;99.90
70947;DHT22;58605;48.700;8.760;2022-10-16T14:13:52;15.80;99.90
70947;DHT22;58605;48.700;8.760;2022-10-16T14:16:20;15.80;99.90
70947;DHT22;58605;48.700;8.760;2022-10-16T14:18:53;15.80;99.90
70947;DHT22;58605;48.700;8.760;2022-10-16T14:21:22;15.80;99.90
70947;DHT22;58605;48.700;8.760;2022-10-16T14:23:48;15.80;99.90
70947;DHT22;58605;48.700;8.760;2022-10-16T14:26:16;15.80;99.90
70947;DHT22;58605;48.700;8.760;2022-10-16T14:28:44;15.80;99.90
70947;DHT22;58605;48.700;8.760;2022-10-16T14:31:26;15.90;99.90
70947;DHT22;58605;48.700;8.760;2022-10-16T14:33:52;15.90;99.90
70947;DHT22;58605;48.700;8.760;2022-10-16T14:36:18;15.90;99.90
70947;DHT22;58605;48.700;8.760;2022-10-16T14:38:55;15.90;99.90
70947;DHT22;58605;48.700;8.760;2022-10-16T14:41:22;15.80;99.90
70947;DHT22;58605;48.700;8.760;2022-10-16T14:43:51;15.90;99.90
70947;DHT22;58605;48.700;8.760;2022-10-16T14:46:22;15.90;99.90
70947;DHT22;58605;48.700;8.760;2022-10-16T14:48:54;15.90;99.90
70947;DHT22;58605;48.700;8.760;2022-10-16T14:51:22;15.90;99.90
70947;DHT22;58605;48.700;8.760;2022-10-16T14:53:50;15.90;99.90
70947;DHT22;58605;48.700;8.760;2022-10-16T14:56:19;15.90;99.90
70947;DHT22;58605;48.700;8.760;2022-10-16T14:58:45;16.00;99.90
70947;DHT22;58605;48.700;8.760;2022-10-16T15:01:12;16.00;99.90
70947;DHT22;58605;48.700;8.760;2022-10-16T15:03:38;16.00;99.90
70947;DHT22;58605;48.700;8.760;2022-10-16T15:06:09;16.00;99.90
70947;DHT22;58605;48.700;8.760;2022-10-16T15:08:36;16.00;99.90
70947;DHT22;58605;48.700;8.760;2022-10-16T15:11:04;16.00;99.90
70947;DHT22;58605;48.700;8.760;2022-10-16T15:13:30;16.00;99.90
70947;DHT22;58605;48.700;8.760;2022-10-16T15:15:56;16.00;99.90
70947;DHT22;58605;48.700;8.760;2022-10-16T15:18:22;16.00;99.90
70947;DHT22;58605;48.700;8.760;2022-10-16T15:20:49;16.00;99.90
70947;DHT22;58605;48.700;8.760;2022-10-16T15:23:16;16.00;99.90
70947;DHT22;58605;48.700;8.760;2022-10-16T15:25:44;16.00;99.90
70947;DHT22;58605;48.700;8.760;2022-10-16T15:28:13;16.00;99.90
70947;DHT22;58605;48.700;8.760;2022-10-16T15:30:39;16.00;99.90
70947;DHT22;58605;48.700;8.760;2022-10-16T15:33:11;16.10;99.90
70947;DHT22;58605;48.700;8.760;2022-10-16T15:35:38;16.10;99.90
70947;DHT22;58605;48.700;8.760;2022-10-16T15:38:03;16.10;99.90
70947;DHT22;58605;48.700;8.760;2022-10-16T15:40:29;16.10;99.90
70947;DHT22;58605;48.700;8.760;2022-10-16T15:42:55;16.20;99.90
70947;DHT22;58605;48.700;8.760;2022-10-16T15:45:23;16.20;99.90
70947;DHT22;58605;48.700;8.760;2022-10-16T15:47:49;16.20;99.90
70947;DHT22;58605;48.700;8.760;2022-10-16T15:50:16;16.20;99.90